createdAt,value
2022-12-01T00:01:38.907Z,101236.78
2022-12-01T00:04:07.348Z,101233.31
2022-12-01T00:06:35.938Z,101223.31
2022-12-01T00:09:21.737Z,101236.69
2022-12-01T00:11:53.044Z,101227.31
2022-12-01T00:14:21.355Z,101218.75
2022-12-01T00:16:49.985Z,101231.63
2022-12-01T00:19:18.931Z,101224.06
2022-12-01T00:21:47.757Z,101221.94
2022-12-01T00:24:16.227Z,101220.34
2022-12-01T00:26:44.775Z,101213.34
2022-12-01T00:29:13.268Z,101224.31
2022-12-01T00:31:41.841Z,101217.06
2022-12-01T00:34:25.511Z,101218.63
2022-12-01T00:36:54.109Z,101217.91
2022-12-01T00:39:22.842Z,101223.38
2022-12-01T00:41:53.900Z,101224.13
2022-12-01T00:44:22.361Z,101218.03
2022-12-01T00:46:51.031Z,101215.41
2022-12-01T00:49:19.448Z,101218.25
2022-12-01T00:51:48.109Z,101217.59
2022-12-01T00:54:16.559Z,101213.72
2022-12-01T00:56:45.091Z,101209.78
2022-12-01T00:59:13.640Z,101218.84
2022-12-01T01:01:42.262Z,101226.66
2022-12-01T01:04:10.640Z,101227.59
2022-12-01T01:06:39.465Z,101224.75
2022-12-01T01:09:07.869Z,101226.97
2022-12-01T01:11:36.507Z,101225.69
2022-12-01T01:18:03.386Z,101238.75
2022-12-01T01:20:32.178Z,101240.09
2022-12-01T01:23:00.805Z,101236.50
2022-12-01T01:25:29.417Z,101233.22
2022-12-01T01:27:57.863Z,101229.47
2022-12-01T01:30:26.453Z,101234.50
2022-12-01T01:32:55.133Z,101235.34
2022-12-01T01:35:23.624Z,101233.19
2022-12-01T01:37:52.185Z,101235.59
2022-12-01T01:40:20.738Z,101237.22
2022-12-01T01:42:49.166Z,101238.06
2022-12-01T01:45:27.312Z,101229.22
2022-12-01T01:47:55.869Z,101223.41
2022-12-01T01:50:28.050Z,101228.25
2022-12-01T01:53:16.747Z,101234.97
2022-12-01T01:55:45.219Z,101231.41
2022-12-01T01:58:13.446Z,101235.72
2022-12-01T02:00:44.325Z,101235.63
2022-12-01T02:03:17.047Z,101237.28
2022-12-01T02:05:45.702Z,101241.69
2022-12-01T02:08:14.204Z,101241.97
2022-12-01T02:11:23.598Z,101234.00
2022-12-01T02:14:07.599Z,101233.03
2022-12-01T02:17:03.436Z,101239.91
2022-12-01T02:19:57.007Z,101234.97
2022-12-01T02:22:31.994Z,101231.75
2022-12-01T02:25:27.246Z,101223.03
2022-12-01T02:28:01.828Z,101223.88
2022-12-01T02:31:06.870Z,101238.81
2022-12-01T02:33:50.547Z,101228.69
2022-12-01T02:36:36.483Z,101229.50
2022-12-01T02:39:28.344Z,101234.19
2022-12-01T02:42:32.808Z,101229.03
2022-12-01T02:45:05.978Z,101232.91
2022-12-01T02:47:35.583Z,101232.91
2022-12-01T02:50:06.169Z,101232.91
2022-12-01T02:52:35.945Z,101230.91
2022-12-01T02:55:04.544Z,101232.97
2022-12-01T02:57:33.066Z,101232.97
2022-12-01T03:00:02.230Z,101231.75
2022-12-01T03:03:04.137Z,101229.47
2022-12-01T03:05:58.290Z,101238.94
2022-12-01T03:09:10.854Z,101227.03
2022-12-01T03:12:10.463Z,101237.47
2022-12-01T03:14:52.903Z,101241.50
2022-12-01T03:17:32.227Z,101235.78
2022-12-01T03:20:39.539Z,101231.13
2022-12-01T03:23:14.734Z,101240.13
2022-12-01T03:25:47.849Z,101238.56
2022-12-01T03:28:23.202Z,101236.03
2022-12-01T03:30:57.271Z,101241.59
2022-12-01T03:33:39.182Z,101245.91
2022-12-01T03:36:31.139Z,101244.34
2022-12-01T03:39:04.726Z,101254.75
2022-12-01T03:41:46.639Z,101249.50
2022-12-01T03:44:24.198Z,101247.34
2022-12-01T03:47:00.523Z,101252.59
2022-12-01T03:49:29.145Z,101242.16
2022-12-01T03:52:38.290Z,101251.53
2022-12-01T03:55:29.020Z,101245.91
2022-12-01T03:58:07.544Z,101242.84
2022-12-01T04:00:36.577Z,101245.94
2022-12-01T04:03:06.061Z,101255.00
2022-12-01T04:05:36.066Z,101254.56
2022-12-01T04:08:04.601Z,101258.78
2022-12-01T04:10:33.424Z,101249.78
2022-12-01T04:13:00.984Z,101252.84
2022-12-01T04:15:29.609Z,101259.81
2022-12-01T04:17:58.097Z,101258.78
2022-12-01T04:20:26.499Z,101256.91
2022-12-01T04:22:54.935Z,101261.88
2022-12-01T04:25:23.324Z,101263.00
2022-12-01T04:27:51.743Z,101265.03
2022-12-01T04:30:20.174Z,101270.88
2022-12-01T04:32:48.595Z,101262.81
2022-12-01T04:35:17.101Z,101260.63
2022-12-01T04:37:45.615Z,101258.66
2022-12-01T04:40:14.319Z,101263.53
2022-12-01T04:42:42.792Z,101269.41
2022-12-01T04:45:11.786Z,101271.53
2022-12-01T04:47:40.206Z,101275.38
2022-12-01T04:50:09.088Z,101272.75
2022-12-01T04:52:38.817Z,101278.22
2022-12-01T04:55:08.473Z,101275.31
2022-12-01T04:57:36.943Z,101284.00
2022-12-01T05:00:13.041Z,101288.56
2022-12-01T05:02:44.251Z,101291.84
2022-12-01T05:05:14.136Z,101284.72
2022-12-01T05:07:42.862Z,101291.38
2022-12-01T05:10:13.657Z,101287.59
2022-12-01T05:12:42.239Z,101288.56
2022-12-01T05:15:11.348Z,101290.03
2022-12-01T05:17:39.974Z,101291.91
2022-12-01T05:20:25.579Z,101290.16
2022-12-01T05:23:12.287Z,101292.41
2022-12-01T05:25:42.534Z,101289.78
2022-12-01T05:28:10.983Z,101291.56
2022-12-01T05:30:39.424Z,101284.78
2022-12-01T05:33:07.871Z,101288.69
2022-12-01T05:35:36.616Z,101294.44
2022-12-01T05:38:08.087Z,101297.63
2022-12-01T05:40:37.495Z,101291.50
2022-12-01T05:43:06.260Z,101300.84
2022-12-01T05:45:35.397Z,101301.19
2022-12-01T05:48:04.140Z,101307.25
2022-12-01T05:50:33.288Z,101297.78
2022-12-01T05:53:01.726Z,101306.19
2022-12-01T05:55:30.230Z,101310.44
2022-12-01T05:57:58.625Z,101308.47
2022-12-01T06:00:27.139Z,101309.19
2022-12-01T06:02:55.622Z,101306.56
2022-12-01T06:05:24.109Z,101305.53
2022-12-01T06:07:52.649Z,101300.03
2022-12-01T06:10:21.207Z,101310.06
2022-12-01T06:12:49.723Z,101305.78
2022-12-01T06:15:18.160Z,101305.31
2022-12-01T06:17:46.610Z,101306.75
2022-12-01T06:20:15.378Z,101310.78
2022-12-01T06:22:43.825Z,101310.44
2022-12-01T06:25:12.753Z,101308.72
2022-12-01T06:27:41.179Z,101310.13
2022-12-01T06:30:10.223Z,101312.69
2022-12-01T06:32:38.790Z,101315.50
2022-12-01T06:35:07.738Z,101317.69
2022-12-01T06:37:36.115Z,101319.81
2022-12-01T06:40:04.670Z,101323.88
2022-12-01T06:42:33.078Z,101320.06
2022-12-01T06:45:01.633Z,101321.66
2022-12-01T06:47:30.090Z,101322.00
2022-12-01T06:49:58.731Z,101316.75
2022-12-01T06:52:27.231Z,101318.44
2022-12-01T06:54:55.657Z,101321.41
2022-12-01T06:57:24.331Z,101317.88
2022-12-01T06:59:53.096Z,101314.81
2022-12-01T07:02:21.675Z,101331.63
2022-12-01T07:04:50.140Z,101314.56
2022-12-01T07:07:18.531Z,101320.66
2022-12-01T07:09:47.066Z,101329.75
2022-12-01T07:12:15.662Z,101331.84
2022-12-01T07:14:44.110Z,101334.84
2022-12-01T07:17:12.622Z,101341.56
2022-12-01T07:19:40.993Z,101348.78
2022-12-01T07:22:09.366Z,101351.88
2022-12-01T07:24:37.721Z,101342.25
2022-12-01T07:27:06.198Z,101340.16
2022-12-01T07:29:34.729Z,101342.41
2022-12-01T07:32:03.173Z,101351.06
2022-12-01T07:34:31.621Z,101350.75
2022-12-01T07:37:00.014Z,101356.50
2022-12-01T07:39:28.463Z,101356.81
2022-12-01T07:41:56.887Z,101363.38
2022-12-01T07:44:25.395Z,101360.91
2022-12-01T07:46:53.883Z,101358.69
2022-12-01T07:49:22.378Z,101362.00
2022-12-01T07:51:50.868Z,101363.25
2022-12-01T07:54:21.265Z,101366.56
2022-12-01T07:56:49.666Z,101367.09
2022-12-01T07:59:18.191Z,101363.28
2022-12-01T08:01:47.001Z,101365.31
2022-12-01T08:04:15.790Z,101363.00
2022-12-01T08:06:44.253Z,101365.22
2022-12-01T08:09:12.625Z,101372.00
2022-12-01T08:11:41.132Z,101375.66
2022-12-01T08:14:09.611Z,101367.28
2022-12-01T08:16:38.109Z,101365.91
2022-12-01T08:19:06.606Z,101370.81
2022-12-01T08:21:37.503Z,101362.38
2022-12-01T08:24:06.613Z,101361.59
2022-12-01T08:26:35.189Z,101366.66
2022-12-01T08:29:03.609Z,101358.53
2022-12-01T08:31:35.895Z,101369.94
2022-12-01T08:34:07.663Z,101361.81
2022-12-01T08:36:37.323Z,101377.22
2022-12-01T08:39:05.703Z,101367.06
2022-12-01T08:41:34.141Z,101367.75
2022-12-01T08:44:02.655Z,101373.69
2022-12-01T08:46:35.728Z,101375.66
2022-12-01T08:49:07.457Z,101381.78
2022-12-01T08:51:36.374Z,101378.59
2022-12-01T08:54:05.001Z,101385.00
2022-12-01T08:56:38.449Z,101380.91
2022-12-01T08:59:07.538Z,101376.53
2022-12-01T09:01:52.007Z,101382.50
2022-12-01T09:04:26.539Z,101390.22
2022-12-01T09:06:56.645Z,101391.06
2022-12-01T09:09:28.728Z,101392.66
2022-12-01T09:11:57.653Z,101386.06
2022-12-01T09:14:26.219Z,101388.78
2022-12-01T09:16:54.703Z,101393.34
2022-12-01T09:19:25.080Z,101397.63
2022-12-01T09:21:53.918Z,101395.69
2022-12-01T09:24:22.513Z,101398.66
2022-12-01T09:26:51.107Z,101397.81
2022-12-01T09:29:19.577Z,101393.38
2022-12-01T09:31:48.056Z,101384.88
2022-12-01T09:34:20.505Z,101393.72
2022-12-01T09:36:49.404Z,101382.31
2022-12-01T09:39:20.791Z,101384.69
2022-12-01T09:41:57.999Z,101384.16
2022-12-01T09:44:48.236Z,101381.00
2022-12-01T09:47:18.966Z,101375.44
2022-12-01T09:50:05.761Z,101376.97
2022-12-01T09:52:47.889Z,101385.84
2022-12-01T09:55:20.254Z,101386.00
2022-12-01T09:57:51.436Z,101369.09
2022-12-01T10:00:25.651Z,101378.56
2022-12-01T10:03:23.780Z,101371.59
2022-12-01T10:09:14.283Z,101374.50
2022-12-01T10:11:45.750Z,101372.03
2022-12-01T10:14:21.150Z,101370.81
2022-12-01T10:17:30.774Z,101363.44
2022-12-01T10:20:28.397Z,101371.06
2022-12-01T10:22:56.822Z,101367.97
2022-12-01T10:26:01.482Z,101367.69
2022-12-01T10:28:38.697Z,101361.53
2022-12-01T10:31:35.182Z,101362.06
2022-12-01T10:34:08.263Z,101365.38
2022-12-01T10:36:36.727Z,101361.16
2022-12-01T10:39:08.370Z,101361.91
2022-12-01T10:41:38.980Z,101364.88
2022-12-01T10:44:08.415Z,101354.69
2022-12-01T10:46:48.138Z,101355.19
2022-12-01T10:49:18.773Z,101363.44
2022-12-01T10:51:58.253Z,101347.97
2022-12-01T10:54:38.989Z,101350.25
2022-12-01T10:57:16.121Z,101360.06
2022-12-01T11:00:09.849Z,101355.47
2022-12-01T11:02:38.682Z,101354.09
2022-12-01T11:05:32.092Z,101350.25
2022-12-01T11:08:00.838Z,101349.69
2022-12-01T11:10:32.118Z,101346.47
2022-12-01T11:13:21.875Z,101349.00
2022-12-01T11:15:56.763Z,101346.66
2022-12-01T11:18:26.075Z,101346.81
2022-12-01T11:21:09.478Z,101339.06
2022-12-01T11:23:49.692Z,101338.50
2022-12-01T11:26:32.259Z,101337.03
2022-12-01T11:29:22.295Z,101339.25
2022-12-01T11:31:52.880Z,101335.34
2022-12-01T11:34:27.557Z,101336.78
2022-12-01T11:37:02.787Z,101320.81
2022-12-01T11:39:41.374Z,101317.56
2022-12-01T11:42:12.713Z,101326.78
2022-12-01T11:44:51.979Z,101323.81
2022-12-01T11:47:26.748Z,101324.41
2022-12-01T11:50:06.616Z,101322.69
2022-12-01T11:52:40.512Z,101312.91
2022-12-01T11:55:15.204Z,101312.31
2022-12-01T11:57:48.117Z,101317.78
2022-12-01T12:00:23.329Z,101317.31
2022-12-01T12:03:00.537Z,101302.59
2022-12-01T12:09:04.185Z,101304.72
2022-12-01T12:11:38.519Z,101317.41
2022-12-01T12:14:27.601Z,101317.84
2022-12-01T12:17:16.762Z,101319.63
2022-12-01T12:20:31.438Z,101304.19
2022-12-01T12:23:35.915Z,101305.41
2022-12-01T12:26:28.448Z,101307.91
2022-12-01T12:29:51.112Z,101312.19
2022-12-01T12:32:35.018Z,101307.50
2022-12-01T12:35:35.968Z,101311.16
2022-12-01T12:38:28.193Z,101303.22
2022-12-01T12:41:33.232Z,101303.50
2022-12-01T12:44:50.167Z,101314.56
2022-12-01T12:47:33.883Z,101306.31
2022-12-01T12:50:19.834Z,101316.72
2022-12-01T12:52:55.189Z,101309.38
2022-12-01T12:55:41.432Z,101316.28
2022-12-01T12:58:26.519Z,101307.16
2022-12-01T13:01:15.451Z,101305.28
2022-12-01T13:04:13.136Z,101305.56
2022-12-01T13:07:00.147Z,101311.47
2022-12-01T13:09:43.043Z,101302.22
2022-12-01T13:12:18.388Z,101297.41
2022-12-01T13:15:05.363Z,101304.72
2022-12-01T13:17:49.613Z,101300.31
2022-12-01T13:20:22.068Z,101299.28
2022-12-01T13:22:51.235Z,101301.28
2022-12-01T13:25:38.230Z,101311.31
2022-12-01T13:28:21.591Z,101303.63
2022-12-01T13:31:07.286Z,101299.59
2022-12-01T13:33:37.795Z,101300.06
2022-12-01T13:36:45.323Z,101294.69
2022-12-01T13:39:23.293Z,101302.78
2022-12-01T13:42:08.248Z,101300.53
2022-12-01T13:44:44.408Z,101305.13
2022-12-01T13:47:12.918Z,101303.63
2022-12-01T13:49:53.262Z,101297.63
2022-12-01T13:52:25.875Z,101306.84
2022-12-01T13:55:09.288Z,101298.94
2022-12-01T13:58:00.155Z,101307.28
2022-12-01T14:00:34.708Z,101303.44
2022-12-01T14:03:33.812Z,101302.13
2022-12-01T14:06:11.815Z,101294.63
2022-12-01T14:09:16.184Z,101293.41
2022-12-01T14:12:23.558Z,101285.06
2022-12-01T14:15:02.372Z,101290.97
2022-12-01T14:17:35.674Z,101293.09
2022-12-01T14:20:16.580Z,101287.88
2022-12-01T14:22:57.880Z,101293.22
2022-12-01T14:25:30.576Z,101295.28
2022-12-01T14:28:04.731Z,101285.88
2022-12-01T14:30:41.935Z,101292.00
2022-12-01T14:33:41.143Z,101286.81
2022-12-01T14:36:35.857Z,101285.13
2022-12-01T14:39:19.777Z,101281.19
2022-12-01T14:41:53.320Z,101284.66
2022-12-01T14:44:44.045Z,101285.16
2022-12-01T14:47:12.479Z,101285.97
2022-12-01T14:49:40.880Z,101282.03
2022-12-01T14:52:45.015Z,101279.78
2022-12-01T14:55:42.757Z,101280.81
2022-12-01T14:58:23.150Z,101279.59
2022-12-01T15:01:03.909Z,101280.38
2022-12-01T15:03:43.085Z,101279.03
2022-12-01T15:06:18.500Z,101275.41
2022-12-01T15:09:10.617Z,101275.22
2022-12-01T15:11:36.430Z,101274.81
2022-12-01T15:14:04.891Z,101269.38
2022-12-01T15:16:41.319Z,101268.25
2022-12-01T15:19:43.971Z,101268.63
2022-12-01T15:22:18.066Z,101279.53
2022-12-01T15:24:47.229Z,101274.69
2022-12-01T15:27:29.535Z,101279.13
2022-12-01T15:30:03.401Z,101278.47
2022-12-01T15:32:33.970Z,101267.47
2022-12-01T15:35:04.690Z,101272.81
2022-12-01T15:37:46.203Z,101269.00
2022-12-01T15:43:41.403Z,101280.78
2022-12-01T15:46:19.275Z,101276.69
2022-12-01T15:48:47.459Z,101279.88
2022-12-01T15:51:26.717Z,101285.78
2022-12-01T15:53:59.642Z,101284.56
2022-12-01T15:56:38.938Z,101295.56
2022-12-01T15:59:25.236Z,101292.63
2022-12-01T16:01:53.807Z,101289.22
2022-12-01T16:04:28.744Z,101293.94
2022-12-01T16:07:04.550Z,101285.97
2022-12-01T16:09:45.655Z,101290.56
2022-12-01T16:12:14.038Z,101290.63
2022-12-01T16:15:03.027Z,101293.97
2022-12-01T16:17:45.471Z,101290.00
2022-12-01T16:20:26.849Z,101294.88
2022-12-01T16:23:01.951Z,101289.53
2022-12-01T16:25:45.691Z,101287.19
2022-12-01T16:28:25.335Z,101290.38
2022-12-01T16:30:54.994Z,101299.38
2022-12-01T16:33:26.713Z,101299.00
2022-12-01T16:35:55.820Z,101293.75
2022-12-01T16:38:26.757Z,101299.09
2022-12-01T16:41:00.274Z,101306.28
2022-12-01T16:43:30.227Z,101302.91
2022-12-01T16:46:05.325Z,101299.91
2022-12-01T16:48:34.957Z,101307.97
2022-12-01T16:51:05.909Z,101299.00
2022-12-01T16:53:34.501Z,101305.63
2022-12-01T16:56:03.729Z,101298.41
2022-12-01T16:58:32.207Z,101307.97
2022-12-01T17:01:00.703Z,101301.69
2022-12-01T17:03:29.861Z,101304.88
2022-12-01T17:06:01.461Z,101307.00
2022-12-01T17:08:30.255Z,101308.13
2022-12-01T17:10:58.737Z,101310.31
2022-12-01T17:13:27.243Z,101307.19
2022-12-01T17:15:56.639Z,101302.00
2022-12-01T17:18:26.500Z,101315.28
2022-12-01T17:21:13.154Z,101308.53
2022-12-01T17:23:41.751Z,101305.72
2022-12-01T17:26:16.857Z,101300.66
2022-12-01T17:28:45.618Z,101308.78
2022-12-01T17:31:14.538Z,101300.84
2022-12-01T17:33:43.072Z,101308.06
2022-12-01T17:36:16.147Z,101313.06
2022-12-01T17:38:46.642Z,101319.59
2022-12-01T17:41:24.822Z,101315.38
2022-12-01T17:43:53.447Z,101308.13
2022-12-01T17:46:22.089Z,101310.91
2022-12-01T17:48:50.662Z,101311.50
2022-12-01T17:51:19.149Z,101311.41
2022-12-01T17:53:47.554Z,101311.59
2022-12-01T17:56:17.886Z,101310.53
2022-12-01T17:58:46.503Z,101308.81
2022-12-01T18:01:23.084Z,101314.00
2022-12-01T18:03:53.937Z,101304.28
2022-12-01T18:06:22.577Z,101301.81
2022-12-01T18:08:51.351Z,101307.81
2022-12-01T18:11:20.451Z,101312.38
2022-12-01T18:13:51.150Z,101314.00
2022-12-01T18:16:24.822Z,101320.06
2022-12-01T18:18:56.282Z,101312.19
2022-12-01T18:21:26.394Z,101312.66
2022-12-01T18:23:58.463Z,101319.34
2022-12-01T18:26:29.081Z,101311.22
2022-12-01T18:29:08.416Z,101311.13
2022-12-01T18:31:37.852Z,101312.38
2022-12-01T18:34:08.072Z,101309.78
2022-12-01T18:36:39.227Z,101300.03
2022-12-01T18:39:09.517Z,101306.66
2022-12-01T18:41:38.136Z,101296.47
2022-12-01T18:44:07.407Z,101302.34
2022-12-01T18:46:36.075Z,101297.03
2022-12-01T18:49:06.793Z,101293.19
2022-12-01T18:51:37.630Z,101300.41
2022-12-01T18:54:08.364Z,101303.03
2022-12-01T18:56:37.142Z,101299.47
2022-12-01T18:59:09.111Z,101297.09
2022-12-01T19:01:41.283Z,101291.44
2022-12-01T19:04:10.425Z,101293.31
2022-12-01T19:06:41.140Z,101293.19
2022-12-01T19:09:12.042Z,101298.97
2022-12-01T19:11:41.699Z,101298.56
2022-12-01T19:14:18.341Z,101304.47
2022-12-01T19:16:47.215Z,101292.88
2022-12-01T19:19:15.762Z,101297.63
2022-12-01T19:21:45.175Z,101294.94
2022-12-01T19:24:13.913Z,101296.72
2022-12-01T19:26:42.367Z,101296.28
2022-12-01T19:29:10.904Z,101297.97
2022-12-01T19:31:39.742Z,101296.56
2022-12-01T19:34:08.547Z,101297.13
2022-12-01T19:36:36.975Z,101294.50
2022-12-01T19:39:07.662Z,101298.81
2022-12-01T19:41:36.661Z,101293.34
2022-12-01T19:44:05.310Z,101292.38
2022-12-01T19:46:33.684Z,101291.22
2022-12-01T19:49:02.988Z,101291.78
2022-12-01T19:51:36.183Z,101289.09
2022-12-01T19:54:07.378Z,101294.97
2022-12-01T19:56:36.048Z,101300.50
2022-12-01T19:59:05.005Z,101293.72
2022-12-01T20:01:33.979Z,101294.41
2022-12-01T20:04:02.477Z,101297.09
2022-12-01T20:06:32.728Z,101296.84
2022-12-01T20:09:05.989Z,101299.41
2022-12-01T20:11:35.307Z,101300.03
2022-12-01T20:14:05.768Z,101302.34
2022-12-01T20:16:45.255Z,101294.47
2022-12-01T20:19:13.745Z,101293.47
2022-12-01T20:21:44.213Z,101296.09
2022-12-01T20:24:18.653Z,101296.28
2022-12-01T20:26:51.250Z,101296.19
2022-12-01T20:29:27.182Z,101292.44
2022-12-01T20:31:58.411Z,101299.13
2022-12-01T20:34:34.144Z,101289.22
2022-12-01T20:37:03.023Z,101295.81
2022-12-01T20:39:34.618Z,101291.84
2022-12-01T20:42:03.279Z,101284.78
2022-12-01T20:44:31.794Z,101298.28
2022-12-01T20:47:00.401Z,101289.22
2022-12-01T20:49:28.816Z,101286.66
2022-12-01T20:51:57.267Z,101290.22
2022-12-01T20:54:28.458Z,101287.34
2022-12-01T20:56:58.541Z,101289.13
2022-12-01T20:59:27.144Z,101289.72
2022-12-01T21:01:56.290Z,101287.09
2022-12-01T21:04:24.801Z,101285.88
2022-12-01T21:06:55.978Z,101282.22
2022-12-01T21:09:24.407Z,101282.50
2022-12-01T21:12:10.646Z,101281.72
2022-12-01T21:14:38.995Z,101279.28
2022-12-01T21:17:41.187Z,101282.41
2022-12-01T21:20:33.292Z,101280.72
2022-12-01T21:23:21.748Z,101275.28
2022-12-01T21:25:54.942Z,101274.63
2022-12-01T21:28:28.030Z,101273.78
2022-12-01T21:31:15.300Z,101269.09
2022-12-01T21:33:44.170Z,101268.06
2022-12-01T21:36:24.063Z,101274.53
2022-12-01T21:39:12.581Z,101264.13
2022-12-01T21:41:40.985Z,101267.03
2022-12-01T21:44:24.411Z,101259.88
2022-12-01T21:47:05.374Z,101261.34
2022-12-01T21:49:40.457Z,101270.13
2022-12-01T21:52:21.765Z,101255.13
2022-12-01T21:54:51.094Z,101259.03
2022-12-01T21:57:49.445Z,101244.91
2022-12-01T22:00:33.748Z,101250.91
2022-12-01T22:03:20.318Z,101248.88
2022-12-01T22:06:21.311Z,101249.88
2022-12-01T22:08:46.399Z,101243.16
2022-12-01T22:11:27.885Z,101249.44
2022-12-01T22:14:23.202Z,101252.50
2022-12-01T22:17:18.807Z,101247.84
2022-12-01T22:19:58.250Z,101250.47
2022-12-01T22:22:29.337Z,101245.78
2022-12-01T22:25:22.020Z,101247.19
2022-12-01T22:27:50.429Z,101242.19
2022-12-01T22:30:23.336Z,101241.94
2022-12-01T22:32:58.389Z,101251.75
2022-12-01T22:35:51.977Z,101240.22
2022-12-01T22:38:39.961Z,101247.75
2022-12-01T22:41:16.010Z,101236.00
2022-12-01T22:43:59.573Z,101246.16
2022-12-01T22:46:30.193Z,101240.91
2022-12-01T22:49:07.681Z,101238.28
2022-12-01T22:51:41.451Z,101240.81
2022-12-01T22:54:15.319Z,101239.50
2022-12-01T22:56:47.286Z,101233.13
2022-12-01T22:59:33.636Z,101237.91
2022-12-01T23:02:24.169Z,101232.66
2022-12-01T23:05:05.401Z,101229.09
2022-12-01T23:07:41.491Z,101237.63
2022-12-01T23:10:13.856Z,101229.38
2022-12-01T23:12:42.543Z,101225.06
2022-12-01T23:15:39.470Z,101224.69
2022-12-01T23:18:26.908Z,101221.66
2022-12-01T23:21:04.613Z,101215.88
2022-12-01T23:23:38.386Z,101218.25
2022-12-01T23:26:09.711Z,101217.78
2022-12-01T23:28:40.695Z,101219.03
2022-12-01T23:31:10.617Z,101213.44
2022-12-01T23:33:39.388Z,101210.56
2022-12-01T23:36:23.165Z,101205.06
2022-12-01T23:38:56.056Z,101199.03
2022-12-01T23:41:37.332Z,101201.59
2022-12-01T23:44:18.436Z,101202.34
2022-12-01T23:46:47.593Z,101205.72
2022-12-01T23:49:22.004Z,101191.47
2022-12-01T23:51:56.245Z,101203.47
2022-12-01T23:54:34.982Z,101200.31
2022-12-01T23:57:23.505Z,101197.00
